Time;durP1;ratioP1;P1;durP2;ratioP2;P2;SDS_P1;SDS_P2;PMS_P1;PMS_P2;Temp;Humidity;BMP_temperature;BMP_pressure;BME280_temperature;BME280_humidity;BME280_pressure;Samples;Min_cycle;Max_cycle;Signal;HPM_P1;HPM_P2
2022/07/07 00:00:12;;;;;;;11.44;10.33;;;;;;;23.95;42.37;100665.80;454196;116;922628;-74
2022/07/07 00:01:15;;;;;;;11.01;9.93;;;;;;;23.94;42.70;100672.48;454096;116;930045;-75
2022/07/07 00:02:19;;;;;;;10.97;9.89;;;;;;;23.94;42.70;100672.48;454283;116;922584;-74
2022/07/07 00:03:22;;;;;;;11.00;9.67;;;;;;;23.93;42.39;100668.88;454284;116;923040;-74
2022/07/07 00:04:26;;;;;;;9.82;8.90;;;;;;;23.93;42.42;100670.83;454264;116;922444;-74
2022/07/07 00:05:29;;;;;;;10.56;9.64;;;;;;;23.90;42.63;100663.92;454317;116;922577;-74
2022/07/07 00:06:34;;;;;;;10.62;9.15;;;;;;;23.90;42.63;100663.92;454260;116;930611;-74
2022/07/07 00:07:37;;;;;;;10.58;9.74;;;;;;;23.89;42.41;100667.83;454270;116;922659;-74
2022/07/07 00:08:41;;;;;;;11.44;10.08;;;;;;;23.87;42.45;100670.08;454321;116;922783;-73
2022/07/07 00:09:44;;;;;;;12.26;10.22;;;;;;;23.85;42.43;100661.21;454331;116;922590;-73
2022/07/07 00:10:48;;;;;;;10.04;9.04;;;;;;;23.84;42.35;100665.13;454225;116;922743;-73
2022/07/07 00:11:51;;;;;;;10.96;9.94;;;;;;;23.83;42.25;100668.20;454218;116;922953;-74
2022/07/07 00:12:55;;;;;;;11.38;10.38;;;;;;;23.80;42.18;100657.67;454322;116;922580;-74
2022/07/07 00:13:58;;;;;;;10.74;9.51;;;;;;;23.79;42.13;100664.37;454251;116;922727;-74
2022/07/07 00:15:01;;;;;;;10.46;9.47;;;;;;;23.76;42.14;100660.25;454226;116;923166;-74
2022/07/07 00:16:05;;;;;;;10.16;9.11;;;;;;;23.74;42.14;100659.70;454207;116;922907;-75
2022/07/07 00:17:09;;;;;;;9.94;9.06;;;;;;;23.73;42.10;100663.61;454125;116;930514;-74
2022/07/07 00:18:13;;;;;;;9.72;8.93;;;;;;;23.70;42.08;100661.44;454204;116;922596;-74
2022/07/07 00:19:16;;;;;;;10.18;9.08;;;;;;;23.68;42.09;100656.16;454188;116;930507;-74
2022/07/07 00:20:20;;;;;;;9.49;8.48;;;;;;;23.67;42.03;100659.24;454200;116;922880;-74
2022/07/07 00:21:24;;;;;;;11.71;8.81;;;;;;;23.66;42.11;100660.36;454266;116;922543;-74
2022/07/07 00:22:27;;;;;;;9.44;8.41;;;;;;;23.67;42.17;100657.29;454322;116;922633;-74
2022/07/07 00:23:31;;;;;;;11.09;9.66;;;;;;;23.67;42.14;100671.20;454238;116;922623;-74
2022/07/07 00:24:34;;;;;;;10.14;8.55;;;;;;;23.66;42.15;100668.72;454243;116;922724;-74
2022/07/07 00:25:38;;;;;;;9.76;8.92;;;;;;;23.66;42.13;100666.77;454309;116;930480;-74
2022/07/07 00:26:41;;;;;;;10.49;9.52;;;;;;;23.67;42.18;100659.24;454259;116;922595;-74
2022/07/07 00:27:45;;;;;;;10.69;8.93;;;;;;;23.66;42.21;100658.41;454259;116;922698;-74
2022/07/07 00:28:49;;;;;;;9.83;8.86;;;;;;;23.66;42.28;100658.41;454274;116;922666;-74
2022/07/07 00:29:52;;;;;;;10.47;8.97;;;;;;;23.66;42.28;100652.02;456020;114;922702;-74
2022/07/07 00:30:56;;;;;;;10.32;9.18;;;;;;;23.66;42.30;100658.41;446087;119;923081;-74
2022/07/07 00:31:59;;;;;;;9.62;8.82;;;;;;;23.65;42.38;100651.18;446475;118;922976;-74
2022/07/07 00:33:03;;;;;;;9.78;8.96;;;;;;;23.66;42.44;100657.58;446087;119;930551;-74
2022/07/07 00:34:06;;;;;;;10.03;9.25;;;;;;;23.66;42.57;100655.62;450725;116;923327;-74
2022/07/07 00:35:09;;;;;;;10.22;9.19;;;;;;;23.67;42.53;100660.07;453904;117;922613;-74
2022/07/07 00:36:13;;;;;;;13.28;9.42;;;;;;;23.68;42.57;100653.38;454305;116;923031;-74
2022/07/07 00:37:17;;;;;;;10.27;9.45;;;;;;;23.70;42.57;100655.88;454284;116;922818;-74
2022/07/07 00:38:20;;;;;;;9.50;8.59;;;;;;;23.71;42.54;100651.14;454335;116;923076;-74
2022/07/07 00:39:23;;;;;;;10.31;9.15;;;;;;;23.70;42.58;100658.66;454246;116;922618;-74
2022/07/07 00:40:28;;;;;;;10.41;9.24;;;;;;;23.71;42.55;100660.29;454202;116;922742;-74
2022/07/07 00:41:31;;;;;;;9.69;8.79;;;;;;;23.71;42.60;100653.92;454398;116;922647;-74
2022/07/07 00:42:35;;;;;;;9.31;8.51;;;;;;;23.70;42.66;100658.66;454293;116;922578;-74
2022/07/07 00:43:41;;;;;;;9.48;8.66;;;;;;;23.71;42.62;100653.92;454242;116;930605;-74
2022/07/07 00:44:45;;;;;;;8.54;7.82;;;;;;;23.68;42.64;100653.38;454119;116;922998;-74
2022/07/07 00:45:49;;;;;;;9.94;8.99;;;;;;;23.68;42.71;100655.34;454345;116;922917;-74
2022/07/07 00:46:54;;;;;;;10.15;9.12;;;;;;;23.67;42.71;100648.94;454173;116;922807;-73
2022/07/07 00:47:59;;;;;;;8.84;7.90;;;;;;;23.67;42.57;100656.45;454071;116;930543;-74
2022/07/07 00:49:03;;;;;;;8.66;7.76;;;;;;;23.66;42.44;100655.62;454166;116;923200;-74
2022/07/07 00:50:08;;;;;;;12.06;8.00;;;;;;;23.67;42.36;100650.89;454247;116;922622;-74
2022/07/07 00:51:12;;;;;;;8.61;7.86;;;;;;;23.64;42.14;100652.34;454169;116;922604;-74
2022/07/07 00:52:16;;;;;;;9.35;8.37;;;;;;;23.64;42.04;100662.64;454119;116;930578;-74
2022/07/07 00:53:19;;;;;;;9.23;7.81;;;;;;;23.61;41.96;100657.66;454357;116;922585;-75
2022/07/07 00:54:23;;;;;;;8.29;7.54;;;;;;;23.57;42.00;100665.78;454357;116;922673;-75
2022/07/07 00:55:27;;;;;;;8.81;7.88;;;;;;;23.54;42.12;100676.70;454170;116;922556;-75
2022/07/07 00:56:30;;;;;;;8.80;7.78;;;;;;;23.52;42.09;100685.34;454237;116;922593;-75
2022/07/07 00:57:34;;;;;;;7.82;7.06;;;;;;;23.50;42.06;100672.83;454298;116;923332;-74
2022/07/07 00:58:37;;;;;;;8.12;7.29;;;;;;;23.47;42.10;100671.49;454259;116;922560;-74
2022/07/07 00:59:41;;;;;;;7.51;6.83;;;;;;;23.47;42.02;100676.23;454239;116;922815;-75
2022/07/07 01:00:45;;;;;;;7.97;7.06;;;;;;;23.45;41.87;100678.44;454236;116;923215;-75
2022/07/07 01:01:49;;;;;;;8.24;7.36;;;;;;;23.43;41.78;100670.38;454277;116;923029;-74
2022/07/07 01:02:52;;;;;;;8.14;7.33;;;;;;;23.40;41.71;100668.20;454289;116;922805;-74
2022/07/07 01:03:59;;;;;;;8.36;7.61;;;;;;;23.39;41.54;100669.33;454198;116;930531;-74
2022/07/07 01:05:06;;;;;;;7.63;6.78;;;;;;;23.39;41.45;100672.11;454176;116;923298;-74
2022/07/07 01:06:10;;;;;;;7.68;6.39;;;;;;;23.39;41.42;100674.06;454185;116;922705;-74
2022/07/07 01:07:14;;;;;;;7.76;7.05;;;;;;;23.36;41.40;100675.50;454306;116;922549;-75
2022/07/07 01:08:18;;;;;;;8.01;7.23;;;;;;;23.34;41.40;100677.73;454310;116;923111;-75
2022/07/07 01:09:23;;;;;;;7.55;6.91;;;;;;;23.32;41.49;100677.23;454310;116;922769;-75
2022/07/07 01:10:27;;;;;;;9.86;7.96;;;;;;;23.29;41.48;100670.29;454162;116;922673;-74
2022/07/07 01:11:54;;;;;;;8.58;7.73;;;;;;;23.26;41.50;100670.06;454267;116;923500;-75
2022/07/07 01:13:03;;;;;;;8.54;7.72;;;;;;;23.23;41.47;100677.03;454145;116;922584;-74
2022/07/07 01:14:06;;;;;;;8.22;7.21;;;;;;;23.18;41.58;100676.27;454036;116;922714;-75
2022/07/07 01:15:12;;;;;;;7.37;6.72;;;;;;;23.14;41.78;100666.87;454246;116;922547;-75
2022/07/07 01:16:17;;;;;;;8.23;7.51;;;;;;;23.14;41.93;100673.27;449025;118;922658;-74
2022/07/07 01:17:20;;;;;;;9.31;8.31;;;;;;;23.15;41.96;100679.66;454263;116;922941;-74
2022/07/07 01:18:23;;;;;;;9.30;7.07;;;;;;;23.13;42.09;100676.33;454346;116;922639;-75
2022/07/07 01:19:28;;;;;;;8.21;6.68;;;;;;;23.13;42.12;100676.33;454237;116;922666;-74
2022/07/07 01:20:33;;;;;;;8.08;7.25;;;;;;;23.11;42.15;100667.44;454149;116;922658;-75
2022/07/07 01:21:43;;;;;;;8.79;6.94;;;;;;;23.09;42.29;100669.71;454141;116;930484;-75
2022/07/07 01:22:53;;;;;;;8.39;7.52;;;;;;;23.07;42.46;100675.56;453872;116;930512;-74
2022/07/07 01:23:56;;;;;;;;;;;;;;;23.06;42.64;100676.67;457877;116;922067;-75
2022/07/07 01:25:01;;;;;;;7.46;6.79;;;;;;;23.06;42.65;100673.06;454345;116;922843;-74
2022/07/07 01:26:04;;;;;;;7.85;7.15;;;;;;;23.02;42.76;100666.45;454222;116;922522;-75
2022/07/07 01:27:13;;;;;;;7.71;6.97;;;;;;;23.00;42.97;100674.24;454292;116;922544;-75
2022/07/07 01:28:17;;;;;;;7.72;7.02;;;;;;;23.00;42.94;100675.08;446439;118;922964;-74
2022/07/07 01:29:20;;;;;;;8.99;7.28;;;;;;;23.00;42.99;100677.02;444646;117;922646;-73
2022/07/07 01:30:25;;;;;;;8.71;6.85;;;;;;;23.00;42.96;100677.02;451275;115;922631;-73
2022/07/07 01:31:28;;;;;;;7.52;6.96;;;;;;;22.98;43.03;100674.56;454236;116;930563;-74
2022/07/07 01:32:31;;;;;;;7.54;6.88;;;;;;;22.96;43.10;100671.23;446549;118;923131;-74
2022/07/07 01:33:35;;;;;;;10.00;6.75;;;;;;;22.95;43.16;100677.08;446793;117;922543;-74
2022/07/07 01:34:41;;;;;;;8.66;7.51;;;;;;;22.94;43.22;100672.64;451930;117;922765;-74
2022/07/07 01:35:45;;;;;;;9.74;7.92;;;;;;;22.94;43.29;100680.98;451896;117;922752;-74
2022/07/07 01:36:48;;;;;;;10.05;6.97;;;;;;;22.91;43.50;100678.80;451989;117;922991;-74
2022/07/07 01:37:52;;;;;;;12.23;7.48;;;;;;;22.90;43.53;100677.97;452063;117;923290;-74
2022/07/07 01:38:55;;;;;;;7.86;7.12;;;;;;;22.89;43.53;100676.30;452026;117;923079;-75
2022/07/07 01:39:58;;;;;;;8.53;6.57;;;;;;;22.86;43.43;100674.96;452598;117;922603;-75
2022/07/07 01:41:02;;;;;;;7.92;7.09;;;;;;;22.84;43.38;100682.75;452466;117;922876;-75
2022/07/07 01:42:06;;;;;;;9.51;7.43;;;;;;;22.81;43.44;100677.80;452591;117;922550;-75
2022/07/07 01:43:09;;;;;;;8.04;7.02;;;;;;;22.79;43.58;100677.25;452526;117;922886;-74
2022/07/07 01:44:12;;;;;;;7.19;6.58;;;;;;;22.78;43.79;100675.59;452606;117;922663;-74
2022/07/07 01:45:16;;;;;;;7.25;6.49;;;;;;;22.78;43.78;100681.14;452572;117;922646;-74
2022/07/07 01:46:20;;;;;;;10.88;7.14;;;;;;;22.78;43.87;100675.59;452504;117;922787;-74
2022/07/07 01:47:24;;;;;;;8.82;7.10;;;;;;;22.78;43.88;100678.36;452480;117;922565;-74
2022/07/07 01:48:28;;;;;;;8.01;6.99;;;;;;;22.76;43.89;100677.85;452444;117;922629;-75
2022/07/07 01:49:32;;;;;;;8.71;7.23;;;;;;;22.76;43.97;100677.85;452426;117;922607;-74
2022/07/07 01:50:35;;;;;;;7.82;7.11;;;;;;;22.76;44.22;100682.58;452440;117;922905;-74
2022/07/07 01:51:39;;;;;;;8.21;7.44;;;;;;;22.76;44.26;100685.36;452527;117;922701;-74
2022/07/07 01:52:42;;;;;;;7.78;6.97;;;;;;;22.76;44.36;100694.53;452439;117;931005;-74
2022/07/07 01:53:46;;;;;;;8.34;7.51;;;;;;;22.76;44.43;100688.14;452643;117;922607;-74
2022/07/07 01:54:49;;;;;;;8.34;7.34;;;;;;;22.75;44.49;100684.53;452569;117;922557;-74
2022/07/07 01:55:52;;;;;;;7.49;6.91;;;;;;;22.74;44.59;100680.08;452561;117;922540;-74
2022/07/07 01:56:56;;;;;;;8.06;7.47;;;;;;;22.72;44.69;100685.09;452575;117;923175;-75
2022/07/07 01:58:00;;;;;;;10.24;7.39;;;;;;;22.72;44.87;100682.31;452494;117;922959;-74
2022/07/07 01:59:03;;;;;;;8.94;7.44;;;;;;;22.73;44.95;100677.59;452460;117;930648;-73
2022/07/07 02:00:09;;;;;;;8.78;7.67;;;;;;;22.73;45.00;100683.14;452450;117;922768;-74
2022/07/07 02:01:12;;;;;;;7.94;7.19;;;;;;;22.72;45.03;100679.53;452477;117;925418;-74
2022/07/07 02:02:16;;;;;;;8.68;7.87;;;;;;;22.72;45.05;100678.70;452523;117;922640;-74
2022/07/07 02:03:19;;;;;;;8.46;7.76;;;;;;;22.72;45.12;100675.92;452515;117;922618;-74
2022/07/07 02:04:23;;;;;;;9.97;7.58;;;;;;;22.73;45.10;100677.59;452403;117;930525;-74
2022/07/07 02:05:27;;;;;;;12.17;7.74;;;;;;;22.72;45.09;100671.20;452554;117;922775;-74
2022/07/07 02:06:32;;;;;;;8.04;7.33;;;;;;;22.72;45.08;100679.53;452952;116;930501;-74
2022/07/07 02:07:36;;;;;;;10.22;8.22;;;;;;;22.73;45.09;100672.86;453336;117;930489;-74
2022/07/07 02:08:39;;;;;;;9.65;6.95;;;;;;;22.74;45.05;100676.47;453517;117;922926;-74
2022/07/07 02:09:43;;;;;;;8.26;7.44;;;;;;;22.74;45.08;100668.96;453595;117;922537;-74
2022/07/07 02:12:08;;;;;;;10.75;7.36;;;;;;;22.76;45.09;100675.07;453446;117;923918;-74
2022/07/07 02:13:11;;;;;;;8.57;7.67;;;;;;;22.75;45.17;100675.36;453601;117;922640;-74
2022/07/07 02:14:15;;;;;;;8.76;7.73;;;;;;;22.75;45.16;100670.63;452358;117;922536;-74
2022/07/07 02:15:18;;;;;;;8.63;7.65;;;;;;;22.74;45.25;100674.52;447047;118;930556;-74
2022/07/07 02:16:25;;;;;;;9.43;8.04;;;;;;;22.74;45.27;100668.96;454627;116;922596;-74
2022/07/07 02:17:28;;;;;;;8.79;7.58;;;;;;;22.74;45.26;100670.91;454664;116;922934;-74
2022/07/07 02:18:36;;;;;;;7.99;7.35;;;;;;;22.74;45.34;100668.96;454723;116;922545;-74
2022/07/07 02:19:40;;;;;;;8.49;7.75;;;;;;;22.74;45.38;100665.35;454567;116;922688;-74
2022/07/07 02:20:43;;;;;;;9.13;8.31;;;;;;;22.75;45.47;100676.19;454756;116;922674;-74
2022/07/07 02:21:47;;;;;;;8.71;7.89;;;;;;;22.76;45.41;100669.51;454725;116;922611;-74
2022/07/07 02:22:50;;;;;;;8.73;7.91;;;;;;;22.75;45.44;100670.63;454721;116;930472;-74
2022/07/07 02:23:55;;;;;;;9.56;8.24;;;;;;;22.76;45.44;100679.80;454728;114;922495;-74
2022/07/07 02:24:58;;;;;;;8.81;8.02;;;;;;;22.75;45.47;100669.80;454601;116;922568;-74
2022/07/07 02:26:01;;;;;;;8.73;8.00;;;;;;;22.75;45.51;100676.19;454734;116;930563;-74
2022/07/07 02:27:05;;;;;;;8.74;7.79;;;;;;;22.76;45.55;100668.68;454765;116;922554;-74
2022/07/07 02:28:08;;;;;;;8.23;7.49;;;;;;;22.76;45.63;100675.07;454784;116;922905;-74
2022/07/07 02:29:11;;;;;;;8.07;7.35;;;;;;;22.77;45.65;100673.12;454729;116;922911;-74
2022/07/07 02:30:15;;;;;;;9.09;7.82;;;;;;;22.78;45.74;100675.59;456668;114;922782;-74
2022/07/07 02:31:19;;;;;;;8.98;7.45;;;;;;;22.78;45.84;100678.36;454734;116;922582;-74
2022/07/07 02:32:23;;;;;;;8.85;7.59;;;;;;;22.78;45.88;100670.02;454741;116;922652;-74
2022/07/07 02:33:27;;;;;;;11.90;7.80;;;;;;;22.78;45.92;100674.75;454834;116;922571;-74
2022/07/07 02:34:31;;;;;;;11.90;8.42;;;;;;;22.79;45.93;100674.47;462468;114;922557;-73
2022/07/07 02:35:35;;;;;;;10.08;7.78;;;;;;;22.80;46.03;100684.47;462622;114;930566;-74
2022/07/07 02:36:38;;;;;;;9.49;8.64;;;;;;;22.81;46.11;100676.97;462716;114;930524;-74
2022/07/07 02:37:41;;;;;;;9.86;7.30;;;;;;;22.82;46.21;100676.64;462657;114;930547;-74
2022/07/07 02:38:45;;;;;;;8.74;7.34;;;;;;;22.82;46.32;100676.64;462743;114;922582;-74
2022/07/07 02:39:49;;;;;;;12.48;7.86;;;;;;;22.84;46.37;100674.41;459628;114;922570;-74
2022/07/07 02:40:53;;;;;;;8.35;7.61;;;;;;;22.85;46.40;100675.25;457054;116;922662;-74
2022/07/07 02:41:56;;;;;;;9.00;7.97;;;;;;;22.85;46.40;100678.86;457155;116;922903;-74
2022/07/07 02:43:00;;;;;;;11.18;8.25;;;;;;;22.85;46.45;100678.86;457191;116;923076;-74
2022/07/07 02:44:03;;;;;;;8.89;7.75;;;;;;;22.84;46.44;100676.36;457112;116;922779;-74
2022/07/07 02:45:07;;;;;;;8.59;7.63;;;;;;;22.85;46.48;100675.25;457115;116;922695;-74
2022/07/07 02:46:11;;;;;;;12.87;7.53;;;;;;;22.83;46.34;100678.31;456996;116;922599;-74
2022/07/07 02:47:15;;;;;;;8.26;7.03;;;;;;;22.84;46.32;100673.58;457114;116;922654;-74
2022/07/07 02:48:21;;;;;;;8.17;6.84;;;;;;;22.86;46.28;100676.91;457149;116;930510;-74
2022/07/07 02:49:25;;;;;;;8.47;7.57;;;;;;;22.88;46.37;100673.84;457015;116;922651;-74
2022/07/07 02:50:28;;;;;;;9.89;8.29;;;;;;;22.88;46.48;100671.86;457171;116;922700;-74
2022/07/07 02:51:32;;;;;;;8.69;7.89;;;;;;;22.91;46.56;100676.02;457111;116;922647;-74
2022/07/07 02:52:36;;;;;;;9.08;7.09;;;;;;;22.90;46.55;100677.97;457141;116;923011;-74
2022/07/07 02:53:39;;;;;;;9.12;7.61;;;;;;;22.91;46.63;100676.02;457157;116;922701;-75
2022/07/07 02:54:43;;;;;;;9.80;7.81;;;;;;;22.91;46.73;100681.58;457059;116;922675;-74
2022/07/07 02:55:46;;;;;;;10.44;7.87;;;;;;;22.92;46.81;100684.08;457158;116;923349;-74
2022/07/07 02:56:49;;;;;;;8.95;7.50;;;;;;;22.92;46.88;100675.73;457083;116;922559;-75
2022/07/07 02:57:53;;;;;;;8.99;7.29;;;;;;;22.94;47.00;100689.32;457179;116;922850;-74
2022/07/07 02:58:56;;;;;;;10.29;7.70;;;;;;;22.94;47.10;100683.77;457197;116;922589;-74
2022/07/07 02:59:59;;;;;;;8.58;7.78;;;;;;;22.94;46.92;100684.59;457150;116;922799;-74
2022/07/07 03:01:03;;;;;;;8.69;7.22;;;;;;;22.95;46.85;100685.42;457124;116;922517;-74
2022/07/07 03:02:06;;;;;;;7.74;7.06;;;;;;;22.96;46.76;100681.52;457133;116;923040;-74
2022/07/07 03:03:10;;;;;;;9.02;7.49;;;;;;;22.97;46.63;100683.19;457093;116;922559;-74
2022/07/07 03:04:14;;;;;;;7.89;7.16;;;;;;;22.97;46.63;100683.19;457059;116;930545;-74
2022/07/07 03:05:17;;;;;;;8.44;7.47;;;;;;;22.97;46.46;100684.02;457152;116;923635;-74
2022/07/07 03:06:21;;;;;;;8.24;7.07;;;;;;;22.96;46.36;100676.80;456875;116;922623;-74
2022/07/07 03:07:24;;;;;;;8.18;7.51;;;;;;;22.97;46.05;100680.41;454411;116;930967;-74
2022/07/07 03:08:28;;;;;;;8.23;7.51;;;;;;;22.96;45.82;100681.52;454524;116;922637;-74
2022/07/07 03:09:33;;;;;;;8.39;7.60;;;;;;;22.97;45.61;100681.23;454168;116;922645;-74
2022/07/07 03:10:36;;;;;;;8.09;7.29;;;;;;;22.98;45.46;100682.07;454388;116;922637;-74
2022/07/07 03:11:40;;;;;;;8.26;6.61;;;;;;;22.99;45.54;100678.97;454363;116;930606;-74
2022/07/07 03:12:43;;;;;;;9.51;6.97;;;;;;;23.00;45.61;100677.86;454379;116;922758;-74
2022/07/07 03:13:47;;;;;;;8.07;7.39;;;;;;;23.01;45.65;100671.17;454378;116;923064;-74
2022/07/07 03:14:51;;;;;;;9.82;6.96;;;;;;;23.04;45.85;100666.98;450527;116;930542;-74
2022/07/07 03:15:54;;;;;;;9.28;7.39;;;;;;;23.04;45.85;100666.98;449203;118;930594;-74
2022/07/07 03:16:58;;;;;;;8.08;7.29;;;;;;;23.06;45.57;100670.28;449253;118;922647;-74
2022/07/07 03:18:02;;;;;;;7.86;7.20;;;;;;;23.07;45.67;100671.95;449204;118;922655;-74
2022/07/07 03:19:06;;;;;;;10.44;7.65;;;;;;;23.07;45.68;100670.00;449204;118;922568;-74
2022/07/07 03:20:11;;;;;;;8.40;7.66;;;;;;;23.09;45.60;100673.33;451208;116;922567;-74
2022/07/07 03:21:16;;;;;;;8.44;7.53;;;;;;;23.10;45.68;100676.94;454112;116;922592;-74
2022/07/07 03:22:19;;;;;;;9.45;7.74;;;;;;;23.11;45.77;100678.56;454283;116;922801;-74
2022/07/07 03:23:23;;;;;;;11.28;7.12;;;;;;;23.11;45.84;100681.34;454294;116;922986;-74
2022/07/07 03:24:32;;;;;;;10.11;6.94;;;;;;;23.12;45.92;100677.45;454297;116;922654;-74
2022/07/07 03:25:32;;;;;;;7.63;6.88;;;;;;;23.13;45.92;100681.89;453807;116;922785;-74
2022/07/07 03:26:36;;;;;;;8.73;7.83;;;;;;;23.13;46.00;100674.37;454230;116;923488;-74
2022/07/07 03:27:40;;;;;;;9.16;7.36;;;;;;;23.14;46.11;100670.48;454162;116;930558;-74
2022/07/07 03:28:43;;;;;;;8.11;7.37;;;;;;;23.17;46.18;100671.83;454234;116;930553;-74
2022/07/07 03:29:47;;;;;;;8.23;7.19;;;;;;;23.18;46.24;100677.10;451284;116;930559;-74
2022/07/07 03:30:50;;;;;;;8.36;7.26;;;;;;;23.21;46.29;100672.91;454044;116;922601;-74
2022/07/07 03:31:54;;;;;;;8.64;6.98;;;;;;;23.24;46.39;100675.09;449247;118;925598;-74
2022/07/07 03:32:57;;;;;;;9.40;7.74;;;;;;;23.25;46.48;100680.36;454169;116;930452;-74
2022/07/07 03:34:01;;;;;;;8.55;7.74;;;;;;;23.27;46.59;100675.31;450945;116;922718;-74
2022/07/07 03:35:05;;;;;;;8.17;7.40;;;;;;;23.30;46.33;100673.91;446635;118;922678;-74
2022/07/07 03:36:08;;;;;;;8.25;7.44;;;;;;;23.32;46.43;100676.39;446442;118;922717;-74
2022/07/07 03:37:12;;;;;;;9.61;8.03;;;;;;;23.36;46.35;100677.45;446558;118;923084;-74
2022/07/07 03:38:15;;;;;;;10.10;8.23;;;;;;;23.36;46.35;100677.45;446469;118;930468;-74
2022/07/07 03:39:19;;;;;;;8.51;7.52;;;;;;;23.37;46.43;100679.11;446557;118;922760;-74
2022/07/07 03:40:24;;;;;;;9.73;8.19;;;;;;;23.38;46.43;100677.96;451337;117;922617;-74
2022/07/07 03:41:27;;;;;;;10.06;7.76;;;;;;;23.39;46.43;100679.62;462998;114;922618;-74
2022/07/07 03:42:31;;;;;;;8.93;8.09;;;;;;;23.40;46.57;100672.94;463005;114;922668;-74
2022/07/07 03:43:35;;;;;;;8.18;7.33;;;;;;;23.42;46.62;100687.39;462947;114;930550;-74
2022/07/07 03:44:38;;;;;;;10.32;8.96;;;;;;;23.43;46.61;100687.08;462932;114;930608;-75
2022/07/07 03:45:42;;;;;;;9.91;8.18;;;;;;;23.46;46.76;100680.96;462951;114;923225;-74
2022/07/07 03:46:45;;;;;;;10.56;7.41;;;;;;;23.46;46.76;100680.96;462912;114;930476;-74
2022/07/07 03:47:50;;;;;;;8.64;7.77;;;;;;;23.47;46.78;100682.62;462912;114;930484;-74
2022/07/07 03:48:53;;;;;;;9.63;8.56;;;;;;;23.49;46.81;100685.09;462929;114;930505;-74
2022/07/07 03:49:56;;;;;;;9.69;8.76;;;;;;;23.49;46.84;100685.92;463002;114;922555;-74
2022/07/07 03:51:00;;;;;;;9.88;8.22;;;;;;;23.51;46.81;100682.84;462987;114;922580;-74
2022/07/07 03:52:04;;;;;;;10.55;8.46;;;;;;;23.52;46.87;100678.94;462986;114;922701;-74
2022/07/07 03:53:07;;;;;;;9.14;8.24;;;;;;;23.53;46.90;100678.66;463010;114;923323;-75
2022/07/07 03:54:12;;;;;;;12.41;9.03;;;;;;;23.55;46.97;100679.16;462993;114;922932;-74
2022/07/07 03:55:16;;;;;;;10.96;8.17;;;;;;;23.58;46.94;100677.75;462871;114;922540;-74
2022/07/07 03:56:21;;;;;;;8.66;7.91;;;;;;;23.59;46.87;100683.03;462892;114;922708;-75
2022/07/07 03:57:25;;;;;;;10.59;7.88;;;;;;;23.62;46.73;100687.98;463007;114;922608;-74
2022/07/07 03:58:28;;;;;;;9.05;8.08;;;;;;;23.64;46.62;100685.73;463048;114;930525;-75
2022/07/07 03:59:32;;;;;;;9.39;8.53;;;;;;;23.67;46.60;100682.34;462992;114;923048;-74
2022/07/07 04:00:35;;;;;;;8.87;7.53;;;;;;;23.69;46.58;100685.67;462892;114;930473;-74
2022/07/07 04:01:44;;;;;;;8.21;7.49;;;;;;;23.72;46.52;100692.58;462929;114;930473;-74
2022/07/07 04:02:44;;;;;;;9.04;8.24;;;;;;;23.74;46.44;100693.12;462459;114;922603;-74
2022/07/07 04:03:47;;;;;;;12.75;8.54;;;;;;;23.77;46.43;100692.50;462937;114;922580;-74
2022/07/07 04:04:51;;;;;;;9.08;8.11;;;;;;;23.79;46.41;100692.21;462993;114;922859;-74
2022/07/07 04:05:55;;;;;;;13.04;8.44;;;;;;;23.81;46.32;100698.33;462879;114;930493;-74
2022/07/07 04:06:59;;;;;;;9.71;8.82;;;;;;;23.83;46.19;100696.05;468804;112;930630;-74
2022/07/07 04:08:02;;;;;;;11.76;8.66;;;;;;;23.84;46.14;100700.49;471250;112;922612;-74
2022/07/07 04:09:06;;;;;;;9.48;8.17;;;;;;;23.84;46.10;100695.75;471181;112;930469;-74
2022/07/07 04:10:10;;;;;;;9.84;8.89;;;;;;;23.86;46.18;100692.68;471184;112;930431;-74
2022/07/07 04:11:13;;;;;;;10.89;7.89;;;;;;;23.88;46.21;100694.02;471172;112;930518;-74
2022/07/07 04:12:17;;;;;;;8.25;7.42;;;;;;;23.90;46.12;100696.51;471190;112;930516;-74
2022/07/07 04:13:20;;;;;;;11.86;8.17;;;;;;;23.92;46.08;100697.05;471205;112;922566;-75
2022/07/07 04:14:23;;;;;;;11.50;8.54;;;;;;;23.94;46.06;100692.81;469001;112;922558;-74
2022/07/07 04:15:27;;;;;;;9.83;7.62;;;;;;;23.96;45.95;100695.31;462977;113;922713;-74
2022/07/07 04:16:33;;;;;;;7.78;7.05;;;;;;;23.98;45.81;100699.43;466871;112;922696;-74
2022/07/07 04:17:36;;;;;;;11.96;7.53;;;;;;;24.00;45.61;100697.19;471106;112;922818;-74
2022/07/07 04:18:40;;;;;;;8.92;8.04;;;;;;;24.03;45.42;100699.39;471211;112;923063;-75
2022/07/07 04:19:43;;;;;;;9.36;7.58;;;;;;;24.05;45.18;100699.89;471237;112;922585;-74
2022/07/07 04:20:47;;;;;;;10.33;8.41;;;;;;;24.08;44.96;100701.27;471210;112;922658;-74
2022/07/07 04:21:50;;;;;;;11.06;8.34;;;;;;;24.11;44.84;100697.86;471150;112;930498;-74
2022/07/07 04:22:54;;;;;;;9.29;7.91;;;;;;;24.12;44.59;100696.73;471265;112;922583;-74
2022/07/07 04:23:57;;;;;;;9.66;8.39;;;;;;;24.16;44.19;100697.78;471193;112;930570;-74
2022/07/07 04:25:01;;;;;;;8.89;7.64;;;;;;;24.18;43.98;100698.34;471218;112;930501;-74
2022/07/07 04:26:04;;;;;;;9.59;8.38;;;;;;;24.21;43.85;100691.33;471175;112;922835;-74
2022/07/07 04:27:09;;;;;;;10.58;7.98;;;;;;;24.24;43.74;100697.14;471242;112;922698;-72
2022/07/07 04:28:12;;;;;;;12.94;8.72;;;;;;;24.26;43.65;100694.86;471097;112;930575;-75
2022/07/07 04:29:16;;;;;;;12.88;8.46;;;;;;;24.29;43.59;100702.63;471214;112;930127;-75
2022/07/07 04:30:21;;;;;;;11.38;8.67;;;;;;;24.35;43.33;100704.20;462794;114;922650;-75
2022/07/07 04:31:25;;;;;;;12.06;8.59;;;;;;;24.35;43.33;100704.20;462951;114;923134;-75
2022/07/07 04:32:28;;;;;;;13.86;8.84;;;;;;;24.36;43.61;100694.72;462935;114;922683;-75
2022/07/07 04:33:32;;;;;;;12.09;8.52;;;;;;;24.39;43.62;100698.84;462868;114;930274;-75
2022/07/07 04:34:36;;;;;;;9.39;8.50;;;;;;;24.41;43.67;100703.00;462955;114;924594;-75
2022/07/07 04:35:39;;;;;;;9.54;8.44;;;;;;;24.42;43.68;100696.27;462881;114;930848;-75
2022/07/07 04:36:42;;;;;;;12.29;8.74;;;;;;;24.45;43.61;100697.63;463002;114;922504;-75
2022/07/07 04:37:46;;;;;;;9.71;8.73;;;;;;;24.47;43.71;100690.63;462893;114;930467;-75
2022/07/07 04:38:49;;;;;;;9.83;8.87;;;;;;;24.50;43.66;100691.97;462977;114;922509;-75
2022/07/07 04:39:53;;;;;;;15.77;10.23;;;;;;;24.53;43.56;100693.33;462999;114;922806;-75
2022/07/07 04:40:57;;;;;;;11.47;8.96;;;;;;;24.55;43.37;100699.41;462281;114;922592;-75
2022/07/07 04:42:00;;;;;;;10.09;8.93;;;;;;;24.61;42.92;100692.61;462161;114;922622;-75
2022/07/07 04:43:04;;;;;;;10.98;8.90;;;;;;;24.61;42.92;100692.61;462147;114;922628;-75
2022/07/07 04:44:07;;;;;;;12.53;9.12;;;;;;;24.64;42.69;100694.81;462117;114;930463;-75
2022/07/07 04:45:12;;;;;;;14.61;9.26;;;;;;;24.66;42.43;100704.51;462092;114;930369;-75
2022/07/07 04:46:17;;;;;;;9.72;8.76;;;;;;;24.68;42.39;100699.47;455784;116;922650;-75
2022/07/07 04:47:21;;;;;;;12.89;10.32;;;;;;;24.71;42.27;100689.64;456748;114;923091;-75
2022/07/07 04:48:24;;;;;;;11.39;10.21;;;;;;;24.72;42.26;100685.73;462081;114;930240;-75
2022/07/07 04:49:28;;;;;;;13.84;10.75;;;;;;;24.76;42.25;100693.17;462061;114;930022;-75
2022/07/07 04:50:31;;;;;;;15.99;10.13;;;;;;;24.76;42.25;100693.17;462098;114;922681;-75
2022/07/07 04:51:35;;;;;;;15.23;11.53;;;;;;;24.78;42.07;100690.91;462100;114;922658;-75
2022/07/07 04:52:39;;;;;;;16.38;11.21;;;;;;;24.80;41.87;100687.83;462134;114;930370;-75
2022/07/07 04:53:42;;;;;;;14.10;12.16;;;;;;;24.82;41.89;100686.36;462137;114;922812;-75